Time,TemperatureF,DewpointF,PressureIn,WindDirection,WindDirectionDegrees,WindSpeedMPH,WindSpeedGustMPH,Humidity,HourlyPrecipIn,Conditions,Clouds,dailyrainin,SolarRadiationWatts/m^2,SoftwareType,DateUTC
2013-02-28 00:06:00,44.7,36.6,30.19,ENE,59,2.0,3.0,73,0.00,,,0.00,0,Wunderground v.1.15,2013-02-27 23:06:00,
2013-02-28 00:11:00,44.6,36.5,30.20,ENE,61,2.0,2.0,73,0.00,,,0.00,0,Wunderground v.1.15,2013-02-27 23:11:00,
2013-02-28 00:16:00,44.5,36.4,30.19,ENE,57,2.0,2.0,73,0.00,,,0.00,0,Wunderground v.1.15,2013-02-27 23:16:00,
2013-02-28 00:26:00,44.4,36.3,30.20,ENE,71,2.0,4.0,73,0.00,,,0.00,0,Wunderground v.1.15,2013-02-27 23:26:00,
2013-02-28 00:36:00,44.3,36.5,30.20,East,84,4.0,4.0,74,0.00,,,0.00,0,Wunderground v.1.15,2013-02-27 23:36:00,
2013-02-28 00:41:00,44.2,36.4,30.20,ENE,71,4.0,4.0,74,0.00,,,0.00,0,Wunderground v.1.15,2013-02-27 23:41:00,
2013-02-28 00:51:00,43.9,36.1,30.20,ENE,60,3.0,4.0,74,0.00,,,0.00,0,Wunderground v.1.15,2013-02-27 23:51:00,
2013-02-28 00:56:00,43.8,36.4,30.20,NE,54,4.0,6.0,75,0.00,,,0.00,0,Wunderground v.1.15,2013-02-27 23:56:00,
2013-02-28 01:01:00,43.8,36.4,30.20,NE,50,4.0,5.0,75,0.00,,,0.00,0,Wunderground v.1.15,2013-02-28 00:01:00,
2013-02-28 01:11:00,43.7,36.3,30.20,ENE,59,4.0,4.0,75,0.00,,,0.00,0,Wunderground v.1.15,2013-02-28 00:11:00,
2013-02-28 01:21:00,43.6,36.2,30.20,ENE,75,3.0,3.0,75,0.00,,,0.00,0,Wunderground v.1.15,2013-02-28 00:21:00,
2013-02-28 01:26:00,43.5,36.1,30.20,ENE,77,3.0,3.0,75,0.00,,,0.00,0,Wunderground v.1.15,2013-02-28 00:26:00,
2013-02-28 01:31:00,43.4,36.3,30.20,ENE,59,3.0,3.0,76,0.00,,,0.00,0,Wunderground v.1.15,2013-02-28 00:31:00,
2013-02-28 01:41:00,43.1,36.0,30.20,NE,45,3.0,3.0,76,0.00,,,0.00,0,Wunderground v.1.15,2013-02-28 00:41:00,
2013-02-28 01:51:00,42.8,36.1,30.20,ENE,57,3.0,4.0,77,0.00,,,0.00,0,Wunderground v.1.15,2013-02-28 00:51:00,
2013-02-28 01:56:00,42.6,35.9,30.20,ENE,69,3.0,5.0,77,0.00,,,0.00,0,Wunderground v.1.15,2013-02-28 00:56:00,
2013-02-28 02:06:00,42.5,36.1,30.20,ENE,65,4.0,4.0,78,0.00,,,0.00,0,Wunderground v.1.15,2013-02-28 01:06:00,
2013-02-28 02:11:00,42.4,36.0,30.20,ENE,61,3.0,4.0,78,0.00,,,0.00,0,Wunderground v.1.15,2013-02-28 01:11:00,
2013-02-28 02:21:00,42.2,35.8,30.20,ENE,61,3.0,3.0,78,0.00,,,0.00,0,Wunderground v.1.15,2013-02-28 01:21:00,
2013-02-28 02:26:00,42.1,35.7,30.20,NE,44,3.0,3.0,78,0.00,,,0.00,0,Wunderground v.1.15,2013-02-28 01:26:00,
2013-02-28 02:36:00,42.0,36.0,30.20,ENE,66,3.0,4.0,79,0.00,,,0.00,0,Wunderground v.1.15,2013-02-28 01:36:00,
2013-02-28 02:46:00,42.0,36.0,30.20,ENE,63,3.0,5.0,79,0.00,,,0.00,0,Wunderground v.1.15,2013-02-28 01:46:00,
2013-02-28 02:51:00,41.9,35.9,30.20,NE,55,3.0,3.0,79,0.00,,,0.00,0,Wunderground v.1.15,2013-02-28 01:51:00,
2013-02-28 03:01:00,41.8,35.8,30.20,ENE,57,3.0,3.0,79,0.00,,,0.00,0,Wunderground v.1.15,2013-02-28 02:01:00,
2013-02-28 03:06:00,41.7,35.7,30.19,ENE,71,3.0,3.0,79,0.00,,,0.00,0,Wunderground v.1.15,2013-02-28 02:06:00,
2013-02-28 03:16:00,41.5,35.5,30.19,East,83,3.0,3.0,79,0.00,,,0.00,0,Wunderground v.1.15,2013-02-28 02:16:00,
2013-02-28 03:21:00,41.4,35.7,30.19,ENE,69,3.0,3.0,80,0.00,,,0.00,0,Wunderground v.1.15,2013-02-28 02:21:00,
2013-02-28 03:31:00,41.2,35.5,30.19,ENE,61,3.0,3.0,80,0.00,,,0.00,0,Wunderground v.1.15,2013-02-28 02:31:00,
2013-02-28 03:36:00,41.2,35.5,30.19,NE,56,3.0,3.0,80,0.00,,,0.00,0,Wunderground v.1.15,2013-02-28 02:36:00,
2013-02-28 03:46:00,41.1,35.7,30.18,ENE,62,4.0,4.0,81,0.00,,,0.00,0,Wunderground v.1.15,2013-02-28 02:46:00,
2013-02-28 03:56:00,40.9,35.5,30.18,ENE,69,4.0,5.0,81,0.00,,,0.00,0,Wunderground v.1.15,2013-02-28 02:56:00,
2013-02-28 04:06:00,40.9,35.5,30.18,ENE,58,4.0,4.0,81,0.00,,,0.00,0,Wunderground v.1.15,2013-02-28 03:06:00,
2013-02-28 04:11:00,40.9,35.5,30.18,NE,56,4.0,4.0,81,0.00,,,0.00,0,Wunderground v.1.15,2013-02-28 03:11:00,
2013-02-28 04:16:00,40.8,35.4,30.18,East,82,4.0,6.0,81,0.00,,,0.00,0,Wunderground v.1.15,2013-02-28 03:16:00,
2013-02-28 04:21:00,40.8,35.4,30.18,ENE,69,5.0,5.0,81,0.00,,,0.00,0,Wunderground v.1.15,2013-02-28 03:21:00,
2013-02-28 04:31:00,40.7,35.3,30.18,NE,55,5.0,5.0,81,0.00,,,0.00,0,Wunderground v.1.15,2013-02-28 03:31:00,
2013-02-28 04:36:00,40.7,35.6,30.18,NE,36,5.0,5.0,82,0.00,,,0.00,0,Wunderground v.1.15,2013-02-28 03:36:00,
2013-02-28 04:46:00,40.6,35.5,30.18,NE,50,4.0,5.0,82,0.00,,,0.00,0,Wunderground v.1.15,2013-02-28 03:46:00,
2013-02-28 04:51:00,40.7,35.6,30.18,ENE,59,5.0,5.0,82,0.00,,,0.00,0,Wunderground v.1.15,2013-02-28 03:51:00,
2013-02-28 05:01:00,40.6,35.5,30.18,ENE,71,4.0,4.0,82,0.00,,,0.00,0,Wunderground v.1.15,2013-02-28 04:01:00,
2013-02-28 05:11:00,40.5,35.4,30.19,East,82,1.0,3.0,82,0.00,,,0.00,0,Wunderground v.1.15,2013-02-28 04:11:00,
2013-02-28 05:21:00,40.2,35.1,30.18,ENE,76,1.0,1.0,82,0.00,,,0.00,0,Wunderground v.1.15,2013-02-28 04:21:00,
2013-02-28 05:26:00,39.8,34.8,30.19,ENE,62,1.0,2.0,82,0.00,,,0.00,0,Wunderground v.1.15,2013-02-28 04:26:00,
2013-02-28 05:31:00,39.3,34.3,30.18,ENE,65,3.0,3.0,82,0.00,,,0.00,0,Wunderground v.1.15,2013-02-28 04:31:00,
2013-02-28 05:41:00,38.9,34.5,30.19,ENE,65,4.0,4.0,84,0.00,,,0.00,0,Wunderground v.1.15,2013-02-28 04:41:00,
2013-02-28 05:51:00,38.9,34.5,30.19,ENE,71,2.0,2.0,84,0.00,,,0.00,0,Wunderground v.1.15,2013-02-28 04:51:00,
2013-02-28 05:56:00,38.9,34.5,30.19,ENE,71,1.0,2.0,84,0.00,,,0.00,0,Wunderground v.1.15,2013-02-28 04:56:00,
2013-02-28 06:01:00,38.8,34.4,30.19,ENE,71,1.0,1.0,84,0.00,,,0.00,0,Wunderground v.1.15,2013-02-28 05:01:00,
2013-02-28 06:06:00,38.8,34.4,30.19,ENE,71,2.0,2.0,84,0.00,,,0.00,0,Wunderground v.1.15,2013-02-28 05:06:00,
2013-02-28 06:16:00,38.7,34.3,30.19,East,80,2.0,2.0,84,0.00,,,0.00,0,Wunderground v.1.15,2013-02-28 05:16:00,
2013-02-28 06:21:00,38.7,34.6,30.19,ENE,70,2.0,3.0,85,0.00,,,0.00,0,Wunderground v.1.15,2013-02-28 05:21:00,
2013-02-28 06:31:00,38.5,34.4,30.19,NE,54,3.0,4.0,85,0.00,,,0.00,0,Wunderground v.1.15,2013-02-28 05:31:00,
2013-02-28 06:41:00,38.6,34.5,30.19,NE,49,3.0,4.0,85,0.00,,,0.00,0,Wunderground v.1.15,2013-02-28 05:41:00,
2013-02-28 06:46:00,38.7,34.6,30.19,East,86,3.0,5.0,85,0.00,,,0.00,0,Wunderground v.1.15,2013-02-28 05:46:00,
2013-02-28 06:51:00,38.7,34.6,30.19,NE,41,3.0,4.0,85,0.00,,,0.00,5,Wunderground v.1.15,2013-02-28 05:51:00,
2013-02-28 07:01:00,38.7,34.6,30.19,ENE,74,2.0,2.0,85,0.00,,,0.00,12,Wunderground v.1.15,2013-02-28 06:01:00,
2013-02-28 07:06:00,38.8,34.7,30.19,NE,42,3.0,4.0,85,0.00,,,0.00,16,Wunderground v.1.15,2013-02-28 06:06:00,
2013-02-28 07:11:00,38.8,34.7,30.20,ENE,67,3.0,4.0,85,0.00,,,0.00,18,Wunderground v.1.15,2013-02-28 06:11:00,
2013-02-28 07:21:00,38.9,34.8,30.20,ENE,61,3.0,5.0,85,0.00,,,0.00,25,Wunderground v.1.15,2013-02-28 06:21:00,
2013-02-28 07:26:00,38.9,34.8,30.20,ENE,78,3.0,5.0,85,0.00,,,0.00,28,Wunderground v.1.15,2013-02-28 06:26:00,
2013-02-28 07:36:00,39.1,35.0,30.21,ENE,71,3.0,4.0,85,0.00,,,0.00,33,Wunderground v.1.15,2013-02-28 06:36:00,
2013-02-28 07:41:00,39.2,35.1,30.21,ENE,74,3.0,3.0,85,0.00,,,0.00,35,Wunderground v.1.15,2013-02-28 06:41:00,
2013-02-28 07:51:00,39.4,35.3,30.21,ENE,59,3.0,5.0,85,0.00,,,0.00,39,Wunderground v.1.15,2013-02-28 06:51:00,
2013-02-28 08:01:00,39.8,35.4,30.22,East,82,3.0,3.0,84,0.00,,,0.00,44,Wunderground v.1.15,2013-02-28 07:01:00,
2013-02-28 08:06:00,40.0,35.6,30.22,ENE,69,3.0,3.0,84,0.00,,,0.00,127,Wunderground v.1.15,2013-02-28 07:06:00,
2013-02-28 08:11:00,40.3,35.8,30.22,ENE,75,3.0,3.0,84,0.00,,,0.00,174,Wunderground v.1.15,2013-02-28 07:11:00,
2013-02-28 08:21:00,41.1,36.0,30.22,NE,53,4.0,4.0,82,0.00,,,0.00,202,Wunderground v.1.15,2013-02-28 07:21:00,
2013-02-28 08:26:00,41.4,36.3,30.23,ENE,67,4.0,4.0,82,0.00,,,0.00,216,Wunderground v.1.15,2013-02-28 07:26:00,
2013-02-28 08:36:00,41.9,36.5,30.23,ENE,62,3.0,4.0,81,0.00,,,0.00,243,Wunderground v.1.15,2013-02-28 07:36:00,
2013-02-28 08:41:00,42.2,36.5,30.23,NE,54,4.0,4.0,80,0.00,,,0.00,253,Wunderground v.1.15,2013-02-28 07:41:00,
2013-02-28 08:51:00,42.8,36.7,30.23,ENE,71,3.0,5.0,79,0.00,,,0.00,279,Wunderground v.1.15,2013-02-28 07:51:00,
2013-02-28 08:56:00,43.1,36.7,30.23,NE,49,5.0,5.0,78,0.00,,,0.00,292,Wunderground v.1.15,2013-02-28 07:56:00,
2013-02-28 09:06:00,43.8,37.1,30.23,NE,55,4.0,4.0,77,0.00,,,0.00,318,Wunderground v.1.15,2013-02-28 08:06:00,
2013-02-28 09:16:00,44.6,37.5,30.23,NNE,30,3.0,5.0,76,0.00,,,0.00,345,Wunderground v.1.15,2013-02-28 08:16:00,
2013-02-28 09:26:00,45.3,37.5,30.23,NNE,32,3.0,4.0,74,0.00,,,0.00,371,Wunderground v.1.15,2013-02-28 08:26:00,
2013-02-28 09:31:00,45.6,37.8,30.23,ENE,58,3.0,3.0,74,0.00,,,0.00,385,Wunderground v.1.15,2013-02-28 08:31:00,
2013-02-28 09:41:00,46.2,38.4,30.23,ENE,61,3.0,3.0,74,0.00,,,0.00,406,Wunderground v.1.15,2013-02-28 08:41:00,
2013-02-28 09:46:00,46.5,38.0,30.23,NNE,30,2.0,3.0,72,0.00,,,0.00,417,Wunderground v.1.15,2013-02-28 08:46:00,
2013-02-28 09:56:00,47.2,38.6,30.23,North,11,1.0,3.0,72,0.00,,,0.00,434,Wunderground v.1.15,2013-02-28 08:56:00,
2013-02-28 10:01:00,47.4,38.5,30.23,NE,44,2.0,2.0,71,0.00,,,0.00,450,Wunderground v.1.15,2013-02-28 09:01:00,
2013-02-28 10:11:00,48.1,38.8,30.23,NNE,18,3.0,3.0,70,0.00,,,0.00,466,Wunderground v.1.15,2013-02-28 09:11:00,
2013-02-28 10:16:00,48.4,39.1,30.23,ENE,64,3.0,3.0,70,0.00,,,0.00,476,Wunderground v.1.15,2013-02-28 09:16:00,
2013-02-28 10:26:00,49.4,39.7,30.23,ENE,60,2.0,2.0,69,0.00,,,0.00,497,Wunderground v.1.15,2013-02-28 09:26:00,
2013-02-28 10:31:00,49.8,39.7,30.23,NE,45,2.0,2.0,68,0.00,,,0.00,504,Wunderground v.1.15,2013-02-28 09:31:00,
2013-02-28 10:41:00,50.3,39.8,30.23,ENE,76,2.0,2.0,67,0.00,,,0.00,519,Wunderground v.1.15,2013-02-28 09:41:00,
2013-02-28 10:46:00,50.7,40.1,30.23,NE,39,1.0,3.0,67,0.00,,,0.00,531,Wunderground v.1.15,2013-02-28 09:46:00,
2013-02-28 10:56:00,51.2,40.2,30.23,ENE,72,2.0,2.0,66,0.00,,,0.00,543,Wunderground v.1.15,2013-02-28 09:56:00,
2013-02-28 11:01:00,51.9,40.9,30.23,ENE,57,2.0,2.0,66,0.00,,,0.00,548,Wunderground v.1.15,2013-02-28 10:01:00,
2013-02-28 11:11:00,53.0,41.9,30.23,WNW,302,1.0,1.0,66,0.00,,,0.00,563,Wunderground v.1.15,2013-02-28 10:11:00,
2013-02-28 11:21:00,53.6,41.7,30.23,SW,225,1.0,1.0,64,0.00,,,0.00,578,Wunderground v.1.15,2013-02-28 10:21:00,
2013-02-28 11:26:00,53.8,41.9,30.23,SW,225,0.0,1.0,64,0.00,,,0.00,575,Wunderground v.1.15,2013-02-28 10:26:00,
2013-02-28 11:36:00,54.7,42.3,30.23,SW,215,1.0,1.0,63,0.00,,,0.00,577,Wunderground v.1.15,2013-02-28 10:36:00,
2013-02-28 11:41:00,54.8,41.6,30.22,North,5,1.0,1.0,61,0.00,,,0.00,585,Wunderground v.1.15,2013-02-28 10:41:00,
2013-02-28 11:51:00,55.0,41.4,30.22,ESE,113,2.0,3.0,60,0.00,,,0.00,591,Wunderground v.1.15,2013-02-28 10:51:00,
2013-02-28 11:56:00,55.0,41.4,30.22,SE,138,2.0,3.0,60,0.00,,,0.00,606,Wunderground v.1.15,2013-02-28 10:56:00,
2013-02-28 12:06:00,56.0,41.4,30.22,SE,126,1.0,3.0,58,0.00,,,0.00,619,Wunderground v.1.15,2013-02-28 11:06:00,
2013-02-28 12:11:00,56.5,41.0,30.22,SE,130,1.0,2.0,56,0.00,,,0.00,650,Wunderground v.1.15,2013-02-28 11:11:00,
2013-02-28 12:21:00,56.9,40.4,30.21,ESE,121,2.0,2.0,54,0.00,,,0.00,652,Wunderground v.1.15,2013-02-28 11:21:00,
2013-02-28 12:31:00,56.8,39.8,30.21,ESE,105,3.0,3.0,53,0.00,,,0.00,132,Wunderground v.1.15,2013-02-28 11:31:00,
2013-02-28 12:41:00,56.3,40.3,30.20,SE,144,1.0,2.0,55,0.00,,,0.00,206,Wunderground v.1.15,2013-02-28 11:41:00,
2013-02-28 12:46:00,56.2,40.7,30.20,ESE,122,1.0,2.0,56,0.00,,,0.00,371,Wunderground v.1.15,2013-02-28 11:46:00,
2013-02-28 12:56:00,57.6,42.0,30.20,SSW,202,2.0,4.0,56,0.00,,,0.00,707,Wunderground v.1.15,2013-02-28 11:56:00,
2013-02-28 13:01:00,57.6,42.0,30.20,SW,218,3.0,3.0,56,0.00,,,0.00,664,Wunderground v.1.15,2013-02-28 12:01:00,
2013-02-28 13:11:00,57.3,42.2,30.19,SSE,148,2.0,2.0,57,0.00,,,0.00,643,Wunderground v.1.15,2013-02-28 12:11:00,
2013-02-28 13:21:00,58.1,42.0,30.19,SSE,155,2.0,2.0,55,0.00,,,0.00,628,Wunderground v.1.15,2013-02-28 12:21:00,
2013-02-28 13:26:00,57.4,42.3,30.19,SSE,150,1.0,2.0,57,0.00,,,0.00,557,Wunderground v.1.15,2013-02-28 12:26:00,
2013-02-28 13:36:00,56.9,42.3,30.18,South,184,3.0,5.0,58,0.00,,,0.00,622,Wunderground v.1.15,2013-02-28 12:36:00,
2013-02-28 13:41:00,56.9,42.3,30.18,WNW,287,2.0,2.0,58,0.00,,,0.00,666,Wunderground v.1.15,2013-02-28 12:41:00,
2013-02-28 13:51:00,57.1,42.9,30.18,SSE,161,3.0,3.0,59,0.00,,,0.00,599,Wunderground v.1.15,2013-02-28 12:51:00,
2013-02-28 14:01:00,57.9,43.2,30.18,SSE,150,2.0,2.0,58,0.00,,,0.00,650,Wunderground v.1.15,2013-02-28 13:01:00,
2013-02-28 14:06:00,58.2,42.6,30.18,SSE,165,3.0,6.0,56,0.00,,,0.00,213,Wunderground v.1.15,2013-02-28 13:06:00,
2013-02-28 14:16:00,57.7,43.9,30.17,South,191,2.0,4.0,60,0.00,,,0.00,406,Wunderground v.1.15,2013-02-28 13:16:00,
2013-02-28 14:21:00,57.8,43.6,30.17,SSW,201,2.0,2.0,59,0.00,,,0.00,563,Wunderground v.1.15,2013-02-28 13:21:00,
2013-02-28 14:31:00,57.5,43.3,30.17,South,178,3.0,5.0,59,0.00,,,0.00,510,Wunderground v.1.15,2013-02-28 13:31:00,
2013-02-28 14:41:00,57.7,43.9,30.17,South,175,3.0,4.0,60,0.00,,,0.00,476,Wunderground v.1.15,2013-02-28 13:41:00,
2013-02-28 14:46:00,57.1,42.9,30.17,SSW,207,3.0,5.0,59,0.00,,,0.00,483,Wunderground v.1.15,2013-02-28 13:46:00,
2013-02-28 14:56:00,57.5,44.1,30.17,West,266,3.0,5.0,61,0.00,,,0.00,450,Wunderground v.1.15,2013-02-28 13:56:00,
2013-02-28 15:01:00,57.3,43.5,30.17,SSW,195,3.0,5.0,60,0.00,,,0.00,223,Wunderground v.1.15,2013-02-28 14:01:00,
2013-02-28 15:11:00,57.8,44.4,30.17,South,176,2.0,3.0,61,0.00,,,0.00,406,Wunderground v.1.15,2013-02-28 14:11:00,
2013-02-28 15:21:00,57.3,43.5,30.16,South,185,3.0,3.0,60,0.00,,,0.00,387,Wunderground v.1.15,2013-02-28 14:21:00,
2013-02-28 15:26:00,57.4,43.2,30.16,West,277,2.0,3.0,59,0.00,,,0.00,367,Wunderground v.1.15,2013-02-28 14:26:00,
2013-02-28 15:36:00,57.5,43.7,30.16,NW,312,3.0,3.0,60,0.00,,,0.00,339,Wunderground v.1.15,2013-02-28 14:36:00,
2013-02-28 15:41:00,58.0,44.2,30.16,SSW,213,2.0,2.0,60,0.00,,,0.00,329,Wunderground v.1.15,2013-02-28 14:41:00,
2013-02-28 15:51:00,57.7,43.5,30.16,SSW,202,3.0,3.0,59,0.00,,,0.00,308,Wunderground v.1.15,2013-02-28 14:51:00,
2013-02-28 16:01:00,57.4,42.7,30.16,South,185,4.0,6.0,58,0.00,,,0.00,269,Wunderground v.1.15,2013-02-28 15:01:00,
2013-02-28 16:06:00,57.0,41.9,30.15,South,182,4.0,6.0,57,0.00,,,0.00,264,Wunderground v.1.15,2013-02-28 15:06:00,
2013-02-28 16:16:00,57.3,42.2,30.15,SSE,155,2.0,5.0,57,0.00,,,0.00,232,Wunderground v.1.15,2013-02-28 15:16:00,
2013-02-28 16:21:00,56.8,41.3,30.15,South,182,4.0,8.0,56,0.00,,,0.00,223,Wunderground v.1.15,2013-02-28 15:21:00,
2013-02-28 16:31:00,56.3,41.3,30.15,SSW,197,5.0,5.0,57,0.00,,,0.00,192,Wunderground v.1.15,2013-02-28 15:31:00,
2013-02-28 16:41:00,56.1,40.6,30.15,SE,144,4.0,4.0,56,0.00,,,0.00,155,Wunderground v.1.15,2013-02-28 15:41:00,
2013-02-28 16:46:00,56.3,41.3,30.15,SSW,195,3.0,5.0,57,0.00,,,0.00,139,Wunderground v.1.15,2013-02-28 15:46:00,
2013-02-28 16:51:00,56.0,41.0,30.15,SSE,161,4.0,4.0,57,0.00,,,0.00,127,Wunderground v.1.15,2013-02-28 15:51:00,
2013-02-28 17:01:00,55.8,42.1,30.15,SSE,151,3.0,3.0,60,0.00,,,0.00,95,Wunderground v.1.15,2013-02-28 16:01:00,
2013-02-28 17:11:00,55.4,42.6,30.14,South,178,4.0,5.0,62,0.00,,,0.00,67,Wunderground v.1.15,2013-02-28 16:11:00,
2013-02-28 17:21:00,55.1,43.1,30.14,SSW,207,3.0,3.0,64,0.00,,,0.00,46,Wunderground v.1.15,2013-02-28 16:21:00,
2013-02-28 17:31:00,54.7,44.0,30.14,SSW,206,3.0,4.0,67,0.00,,,0.00,30,Wunderground v.1.15,2013-02-28 16:31:00,
2013-02-28 17:36:00,54.4,44.1,30.14,SSE,161,3.0,4.0,68,0.00,,,0.00,25,Wunderground v.1.15,2013-02-28 16:36:00,
2013-02-28 17:46:00,54.0,44.1,30.14,SSW,197,3.0,4.0,69,0.00,,,0.00,12,Wunderground v.1.15,2013-02-28 16:46:00,
2013-02-28 17:56:00,53.6,44.0,30.14,South,174,4.0,5.0,70,0.00,,,0.00,5,Wunderground v.1.15,2013-02-28 16:56:00,
2013-02-28 18:06:00,53.2,43.7,30.14,SSE,163,3.0,4.0,70,0.00,,,0.00,0,Wunderground v.1.15,2013-02-28 17:06:00,
2013-02-28 18:11:00,53.1,43.9,30.14,SSE,167,2.0,2.0,71,0.00,,,0.00,0,Wunderground v.1.15,2013-02-28 17:11:00,
2013-02-28 18:21:00,52.9,44.1,30.14,South,188,2.0,2.0,72,0.00,,,0.00,0,Wunderground v.1.15,2013-02-28 17:21:00,
2013-02-28 18:26:00,52.8,44.0,30.14,South,172,2.0,2.0,72,0.00,,,0.00,0,Wunderground v.1.15,2013-02-28 17:26:00,
2013-02-28 18:36:00,52.6,43.8,30.14,South,178,2.0,2.0,72,0.00,,,0.00,0,Wunderground v.1.15,2013-02-28 17:36:00,
2013-02-28 18:41:00,52.5,44.1,30.14,South,181,2.0,2.0,73,0.00,,,0.00,0,Wunderground v.1.15,2013-02-28 17:41:00,
2013-02-28 18:51:00,52.3,43.9,30.14,SSE,156,2.0,3.0,73,0.00,,,0.00,0,Wunderground v.1.15,2013-02-28 17:51:00,
2013-02-28 18:56:00,52.2,43.8,30.14,South,174,1.0,3.0,73,0.00,,,0.00,0,Wunderground v.1.15,2013-02-28 17:56:00,
2013-02-28 19:06:00,52.0,43.6,30.14,SSE,167,1.0,3.0,73,0.00,,,0.00,0,Wunderground v.1.15,2013-02-28 18:06:00,
2013-02-28 19:11:00,51.9,43.5,30.14,SSE,167,1.0,1.0,73,0.00,,,0.00,0,Wunderground v.1.15,2013-02-28 18:11:00,
2013-02-28 19:21:00,51.7,43.3,30.14,SSE,167,0.0,0.0,73,0.00,,,0.00,0,Wunderground v.1.15,2013-02-28 18:21:00,
2013-02-28 19:26:00,51.6,43.2,30.14,SSE,167,0.0,0.0,73,0.00,,,0.00,0,Wunderground v.1.15,2013-02-28 18:26:00,
2013-02-28 19:36:00,51.4,43.4,30.14,SSE,167,0.0,0.0,74,0.00,,,0.00,0,Wunderground v.1.15,2013-02-28 18:36:00,
2013-02-28 19:46:00,51.1,43.1,30.14,SSE,167,0.0,0.0,74,0.00,,,0.00,0,Wunderground v.1.15,2013-02-28 18:46:00,
2013-02-28 19:56:00,50.8,43.2,30.14,SSE,167,0.0,0.0,75,0.00,,,0.00,0,Wunderground v.1.15,2013-02-28 18:56:00,
2013-02-28 20:01:00,50.7,43.1,30.14,SSE,167,0.0,0.0,75,0.00,,,0.00,0,Wunderground v.1.15,2013-02-28 19:01:00,
2013-02-28 20:11:00,50.4,43.1,30.14,SSE,167,0.0,0.0,76,0.00,,,0.00,0,Wunderground v.1.15,2013-02-28 19:11:00,
2013-02-28 20:21:00,50.0,42.7,30.14,SSE,164,0.0,0.0,76,0.00,,,0.00,0,Wunderground v.1.15,2013-02-28 19:21:00,
2013-02-28 20:26:00,49.9,43.0,30.14,SSE,164,0.0,0.0,77,0.00,,,0.00,0,Wunderground v.1.15,2013-02-28 19:26:00,
2013-02-28 20:36:00,49.6,42.7,30.14,ENE,74,1.0,1.0,77,0.00,,,0.00,0,Wunderground v.1.15,2013-02-28 19:36:00,
2013-02-28 20:46:00,49.5,42.6,30.14,ENE,74,0.0,1.0,77,0.00,,,0.00,0,Wunderground v.1.15,2013-02-28 19:46:00,
2013-02-28 20:51:00,49.3,42.4,30.14,ENE,74,0.0,0.0,77,0.00,,,0.00,0,Wunderground v.1.15,2013-02-28 19:51:00,
2013-02-28 20:56:00,49.1,42.2,30.14,ENE,74,0.0,0.0,77,0.00,,,0.00,0,Wunderground v.1.15,2013-02-28 19:56:00,
2013-02-28 21:06:00,48.9,42.0,30.14,ENE,74,0.0,0.0,77,0.00,,,0.00,0,Wunderground v.1.15,2013-02-28 20:06:00,
2013-02-28 21:16:00,48.6,41.7,30.14,ENE,74,0.0,0.0,77,0.00,,,0.00,0,Wunderground v.1.15,2013-02-28 20:16:00,
2013-02-28 21:21:00,48.5,41.6,30.14,ENE,74,0.0,0.0,77,0.00,,,0.00,0,Wunderground v.1.15,2013-02-28 20:21:00,
2013-02-28 21:26:00,48.4,41.5,30.14,ENE,74,0.0,0.0,77,0.00,,,0.00,0,Wunderground v.1.15,2013-02-28 20:26:00,
2013-02-28 21:36:00,48.3,41.4,30.14,ENE,74,0.0,0.0,77,0.00,,,0.00,0,Wunderground v.1.15,2013-02-28 20:36:00,
2013-02-28 21:46:00,48.2,41.7,30.14,ENE,74,0.0,0.0,78,0.00,,,0.00,0,Wunderground v.1.15,2013-02-28 20:46:00,
2013-02-28 21:51:00,48.2,41.7,30.14,ENE,74,0.0,1.0,78,0.00,,,0.00,0,Wunderground v.1.15,2013-02-28 20:51:00,
2013-02-28 22:01:00,48.2,41.7,30.13,East,84,1.0,3.0,78,0.00,,,0.00,0,Wunderground v.1.15,2013-02-28 21:01:00,
2013-02-28 22:06:00,48.2,41.7,30.13,ENE,67,3.0,3.0,78,0.00,,,0.00,0,Wunderground v.1.15,2013-02-28 21:06:00,
2013-02-28 22:16:00,48.2,41.7,30.13,East,82,4.0,4.0,78,0.00,,,0.00,0,Wunderground v.1.15,2013-02-28 21:16:00,
2013-02-28 22:21:00,48.2,41.7,30.13,ENE,63,4.0,4.0,78,0.00,,,0.00,0,Wunderground v.1.15,2013-02-28 21:21:00,
2013-02-28 22:31:00,48.3,41.8,30.13,ENE,78,4.0,4.0,78,0.00,,,0.00,0,Wunderground v.1.15,2013-02-28 21:31:00,
2013-02-28 22:36:00,48.3,41.8,30.13,ENE,66,3.0,4.0,78,0.00,,,0.00,0,Wunderground v.1.15,2013-02-28 21:36:00,
2013-02-28 22:41:00,48.3,41.8,30.13,ENE,78,3.0,3.0,78,0.00,,,0.00,0,Wunderground v.1.15,2013-02-28 21:41:00,
2013-02-28 22:51:00,48.1,41.6,30.13,ENE,63,3.0,3.0,78,0.00,,,0.00,0,Wunderground v.1.15,2013-02-28 21:51:00,
2013-02-28 23:01:00,47.9,41.7,30.13,ENE,71,3.0,3.0,79,0.00,,,0.00,0,Wunderground v.1.15,2013-02-28 22:01:00,
2013-02-28 23:06:00,47.9,41.7,30.13,ENE,68,3.0,4.0,79,0.00,,,0.00,0,Wunderground v.1.15,2013-02-28 22:06:00,
2013-02-28 23:16:00,48.0,41.5,30.13,ENE,67,3.0,4.0,78,0.00,,,0.00,0,Wunderground v.1.15,2013-02-28 22:16:00,
2013-02-28 23:21:00,48.0,41.8,30.13,ENE,57,3.0,3.0,79,0.00,,,0.00,0,Wunderground v.1.15,2013-02-28 22:21:00,
2013-02-28 23:31:00,47.8,41.6,30.12,ENE,63,3.0,3.0,79,0.00,,,0.00,0,Wunderground v.1.15,2013-02-28 22:31:00,
2013-02-28 23:36:00,47.7,41.5,30.13,ENE,72,3.0,3.0,79,0.00,,,0.00,0,Wunderground v.1.15,2013-02-28 22:36:00,
2013-02-28 23:46:00,47.3,41.4,30.12,ENE,67,3.0,3.0,80,0.00,,,0.00,0,Wunderground v.1.15,2013-02-28 22:46:00,
2013-02-28 23:51:00,47.3,41.4,30.12,ENE,65,3.0,3.0,80,0.00,,,0.00,0,Wunderground v.1.15,2013-02-28 22:51:00,